createdAt,value
2022-08-18T00:03:18.480Z,3.00
2022-08-18T00:08:48.363Z,3.13
2022-08-18T00:14:23.204Z,2.65
2022-08-18T00:19:48.438Z,2.25
2022-08-18T00:24:56.330Z,2.90
2022-08-18T00:30:11.467Z,2.75
2022-08-18T00:35:29.048Z,2.90
2022-08-18T00:40:42.311Z,2.92
2022-08-18T00:45:51.652Z,3.10
2022-08-18T00:56:29.324Z,2.70
2022-08-18T01:01:39.919Z,2.78
2022-08-18T01:06:55.532Z,3.55
2022-08-18T01:12:00.064Z,3.03
2022-08-18T01:17:26.913Z,2.92
2022-08-18T01:22:54.075Z,3.15
2022-08-18T01:28:29.675Z,3.33
2022-08-18T01:33:39.252Z,3.10
2022-08-18T01:39:03.851Z,2.90
2022-08-18T01:44:16.761Z,3.10
2022-08-18T01:49:31.437Z,3.10
2022-08-18T01:54:50.156Z,3.30
2022-08-18T02:00:07.794Z,3.53
2022-08-18T02:05:23.091Z,3.53
2022-08-18T02:10:36.439Z,3.40
2022-08-18T02:15:45.653Z,3.45
2022-08-18T02:20:58.868Z,3.47
2022-08-18T02:26:13.406Z,3.58
2022-08-18T02:31:27.948Z,3.38
2022-08-18T02:36:35.189Z,3.47
2022-08-18T02:41:40.560Z,3.63
2022-08-18T02:46:59.308Z,3.90
2022-08-18T02:52:08.124Z,3.40
2022-08-18T02:57:14.070Z,3.53
2022-08-18T03:02:22.175Z,3.97
2022-08-18T03:07:28.347Z,4.18
2022-08-18T03:12:38.126Z,3.97
2022-08-18T03:17:59.656Z,3.63
2022-08-18T03:23:09.717Z,3.78
2022-08-18T03:28:21.861Z,3.40
2022-08-18T03:33:33.192Z,3.85
2022-08-18T03:38:44.201Z,3.17
2022-08-18T03:44:04.360Z,3.08
2022-08-18T03:49:19.889Z,3.75
2022-08-18T03:54:27.972Z,3.47
2022-08-18T03:59:50.068Z,3.50
2022-08-18T04:04:57.989Z,2.95
2022-08-18T04:10:19.414Z,3.22
2022-08-18T04:15:34.924Z,3.65
2022-08-18T04:20:58.900Z,3.15
2022-08-18T04:26:20.134Z,3.47
2022-08-18T04:36:56.614Z,3.40
2022-08-18T04:42:06.061Z,3.38
2022-08-18T04:47:27.147Z,3.58
2022-08-18T04:53:04.147Z,3.40
2022-08-18T04:58:18.169Z,3.85
2022-08-18T05:03:41.253Z,3.78
2022-08-18T05:09:01.352Z,3.80
2022-08-18T05:14:10.898Z,3.28
2022-08-18T05:19:29.285Z,3.65
2022-08-18T05:24:55.474Z,3.13
2022-08-18T05:30:04.705Z,3.35
2022-08-18T05:35:16.980Z,3.30
2022-08-18T05:40:27.060Z,3.75
2022-08-18T05:45:38.123Z,3.17
2022-08-18T05:50:44.807Z,3.28
2022-08-18T05:56:19.456Z,3.63
2022-08-18T06:01:53.176Z,3.50
2022-08-18T06:06:59.301Z,4.18
2022-08-18T06:12:24.276Z,3.40
2022-08-18T06:17:56.241Z,4.10
2022-08-18T06:23:14.094Z,4.00
2022-08-18T06:28:21.453Z,3.90
2022-08-18T06:33:46.015Z,4.05
2022-08-18T06:39:04.163Z,4.20
2022-08-18T06:44:13.929Z,4.63
2022-08-18T06:49:33.252Z,4.07
2022-08-18T06:54:51.294Z,4.40
2022-08-18T07:00:08.387Z,4.30
2022-08-18T07:05:21.089Z,5.07
2022-08-18T07:10:46.670Z,4.85
2022-08-18T07:15:52.496Z,6.00
2022-08-18T07:21:02.690Z,5.68
2022-08-18T07:26:15.620Z,7.35
2022-08-18T07:31:41.930Z,6.97
2022-08-18T07:36:59.909Z,6.50
2022-08-18T07:42:15.114Z,6.45
2022-08-18T07:48:15.857Z,7.28
2022-08-18T07:53:55.828Z,7.40
2022-08-18T07:59:13.639Z,7.93
2022-08-18T08:04:37.701Z,7.60
2022-08-18T08:09:53.322Z,8.63
2022-08-18T08:15:15.233Z,9.32
2022-08-18T08:20:36.949Z,9.27
2022-08-18T08:25:59.434Z,8.82
2022-08-18T08:31:36.153Z,8.23
2022-08-18T08:36:54.202Z,7.25
2022-08-18T08:42:30.919Z,8.23
2022-08-18T08:47:46.306Z,8.05
2022-08-18T08:53:03.915Z,7.70
2022-08-18T08:58:25.044Z,8.13
2022-08-18T09:03:43.252Z,8.25
2022-08-18T09:09:12.155Z,8.25
2022-08-18T09:14:59.280Z,9.25
2022-08-18T09:20:37.740Z,8.75
2022-08-18T09:26:23.011Z,7.68
2022-08-18T09:31:42.325Z,9.45
2022-08-18T09:37:11.144Z,8.00
2022-08-18T09:42:29.945Z,7.35
2022-08-18T09:53:59.570Z,8.02
2022-08-18T09:59:55.070Z,6.75
2022-08-18T10:05:37.334Z,6.40
2022-08-18T10:11:15.204Z,5.63
2022-08-18T10:17:13.412Z,7.63
2022-08-18T10:22:16.044Z,7.30
2022-08-18T10:28:07.795Z,6.70
2022-08-18T10:34:05.549Z,7.28
2022-08-18T10:39:43.953Z,7.18
2022-08-18T10:45:07.468Z,7.78
2022-08-18T10:50:32.292Z,6.82
2022-08-18T10:56:01.261Z,7.50
2022-08-18T11:01:18.749Z,8.48
2022-08-18T11:06:27.328Z,6.90
2022-08-18T11:11:42.235Z,7.55
2022-08-18T11:17:04.608Z,6.30
2022-08-18T11:27:57.729Z,5.82
2022-08-18T11:33:03.331Z,6.15
2022-08-18T11:43:46.606Z,5.53
2022-08-18T11:48:54.999Z,5.32
2022-08-18T11:54:03.337Z,5.15
2022-08-18T11:59:16.463Z,4.80
2022-08-18T12:10:19.388Z,6.00
2022-08-18T12:15:46.841Z,5.50
2022-08-18T12:20:52.299Z,4.88
2022-08-18T12:26:01.159Z,5.40
2022-08-18T12:31:17.068Z,4.85
2022-08-18T12:36:23.403Z,4.22
2022-08-18T12:41:37.375Z,5.45
2022-08-18T12:46:44.584Z,5.25
2022-08-18T12:51:50.746Z,5.82
2022-08-18T12:56:59.262Z,6.32
2022-08-18T13:02:09.242Z,7.20
2022-08-18T13:07:28.521Z,7.10
2022-08-18T13:12:43.198Z,7.20
2022-08-18T13:17:55.350Z,7.22
2022-08-18T13:23:06.051Z,8.02
2022-08-18T13:28:25.345Z,8.35
2022-08-18T13:33:57.166Z,7.90
2022-08-18T13:39:09.539Z,7.97
2022-08-18T13:44:25.774Z,8.45
2022-08-18T13:49:52.553Z,7.55
2022-08-18T13:55:16.870Z,8.00
2022-08-18T14:00:43.975Z,7.68
2022-08-18T14:05:51.773Z,7.68
2022-08-18T14:11:03.400Z,7.35
2022-08-18T14:16:23.784Z,7.45
2022-08-18T14:21:49.832Z,7.45
2022-08-18T14:26:55.910Z,7.18
2022-08-18T14:32:06.160Z,7.90
2022-08-18T14:37:10.865Z,8.07
2022-08-18T14:42:32.798Z,7.85
2022-08-18T14:47:50.333Z,8.05
2022-08-18T14:53:00.273Z,9.50
2022-08-18T14:58:07.505Z,9.57
2022-08-18T15:03:21.413Z,10.82
2022-08-18T15:08:49.984Z,12.02
2022-08-18T15:14:06.560Z,11.65
2022-08-18T15:19:58.876Z,11.75
2022-08-18T15:25:27.236Z,11.68
2022-08-18T15:30:50.993Z,10.32
2022-08-18T15:36:05.589Z,11.60
2022-08-18T15:41:44.090Z,10.57
2022-08-18T15:47:01.078Z,9.80
2022-08-18T15:52:39.234Z,10.25
2022-08-18T15:58:03.964Z,8.82
2022-08-18T16:03:35.945Z,9.68
2022-08-18T16:08:47.147Z,10.02
2022-08-18T16:13:54.627Z,9.15
2022-08-18T16:19:06.663Z,9.07
2022-08-18T16:24:18.255Z,8.55
2022-08-18T16:29:30.074Z,9.10
2022-08-18T16:34:36.669Z,9.98
2022-08-18T16:39:47.353Z,9.23
2022-08-18T16:44:53.925Z,10.75
2022-08-18T16:49:59.170Z,11.73
2022-08-18T16:55:15.447Z,11.20
2022-08-18T17:00:40.237Z,11.32
2022-08-18T17:05:47.260Z,11.93
2022-08-18T17:11:00.537Z,12.30
2022-08-18T17:16:10.769Z,12.13
2022-08-18T17:21:25.773Z,12.80
2022-08-18T17:26:52.689Z,12.50
2022-08-18T17:32:02.003Z,12.48
2022-08-18T17:37:12.704Z,11.77
2022-08-18T17:42:40.099Z,11.00
2022-08-18T17:47:53.428Z,10.90
2022-08-18T17:53:06.372Z,10.55
2022-08-18T17:58:21.971Z,9.73
2022-08-18T18:03:28.163Z,8.57
2022-08-18T18:09:01.037Z,8.95
2022-08-18T18:14:27.207Z,8.10
2022-08-18T18:19:42.219Z,8.40
2022-08-18T18:25:08.689Z,8.05
2022-08-18T18:30:27.825Z,8.00
2022-08-18T18:35:54.861Z,8.07
2022-08-18T18:41:07.789Z,8.27
2022-08-18T18:46:32.323Z,8.65
2022-08-18T18:51:45.692Z,9.25
2022-08-18T18:56:57.805Z,9.98
2022-08-18T19:02:33.034Z,9.57
2022-08-18T19:07:57.616Z,9.80
2022-08-18T19:13:25.079Z,9.75
2022-08-18T19:18:57.728Z,8.20
2022-08-18T19:24:23.405Z,8.07
2022-08-18T19:29:35.054Z,7.85
2022-08-18T19:34:52.607Z,7.25
2022-08-18T19:40:20.242Z,7.20
2022-08-18T19:45:57.573Z,6.63
2022-08-18T19:51:10.378Z,6.40
2022-08-18T19:56:37.359Z,6.15
2022-08-18T20:02:00.323Z,7.43
2022-08-18T20:07:38.632Z,8.77
2022-08-18T20:13:06.590Z,8.60
2022-08-18T20:18:23.330Z,9.20
2022-08-18T20:23:39.723Z,9.27
2022-08-18T20:28:54.277Z,8.85
2022-08-18T20:34:14.556Z,10.15
2022-08-18T20:39:52.544Z,11.35
2022-08-18T20:45:03.851Z,13.07
2022-08-18T20:50:45.608Z,13.02
2022-08-18T20:56:31.787Z,13.00
2022-08-18T21:01:31.099Z,12.52
2022-08-18T21:06:54.186Z,13.48
2022-08-18T21:12:03.544Z,13.45
2022-08-18T21:17:18.406Z,12.93
2022-08-18T21:22:27.833Z,12.30
2022-08-18T21:27:41.135Z,11.85
2022-08-18T21:32:54.675Z,13.23
2022-08-18T21:38:17.252Z,12.93
2022-08-18T21:43:49.378Z,12.38
2022-08-18T21:48:59.367Z,13.63
2022-08-18T21:54:13.810Z,12.18
2022-08-18T21:59:30.584Z,10.95
2022-08-18T22:04:55.277Z,11.10
2022-08-18T22:10:22.594Z,12.40
2022-08-18T22:15:44.592Z,15.05
2022-08-18T22:20:57.733Z,13.25
2022-08-18T22:31:38.232Z,13.35
2022-08-18T22:36:49.423Z,12.75
2022-08-18T22:47:24.801Z,13.68
2022-08-18T22:52:35.594Z,13.00
2022-08-18T22:57:44.172Z,14.35
2022-08-18T23:02:53.971Z,15.05
2022-08-18T23:07:59.305Z,14.48
2022-08-18T23:13:05.656Z,14.60
2022-08-18T23:18:14.218Z,14.88
2022-08-18T23:23:25.286Z,15.75
2022-08-18T23:28:56.267Z,17.17
2022-08-18T23:34:11.294Z,16.02
2022-08-18T23:39:19.994Z,18.27
2022-08-18T23:44:30.015Z,16.85
2022-08-18T23:49:44.708Z,19.85
2022-08-18T23:54:57.235Z,18.42
